createdAt,value
2022-10-02T00:00:28.720Z,937.23
2022-10-02T00:01:28.854Z,937.26
2022-10-02T00:02:28.748Z,937.26
2022-10-02T00:03:28.761Z,937.26
2022-10-02T00:04:28.827Z,937.27
2022-10-02T00:05:28.789Z,937.28
2022-10-02T00:06:28.800Z,937.32
2022-10-02T00:07:28.814Z,937.31
2022-10-02T00:08:28.829Z,937.35
2022-10-02T00:09:28.841Z,937.35
2022-10-02T00:10:28.855Z,937.39
2022-10-02T00:11:28.869Z,937.43
2022-10-02T00:12:28.880Z,937.42
2022-10-02T00:13:28.894Z,937.38
2022-10-02T00:14:28.925Z,937.40
2022-10-02T00:15:28.924Z,937.45
2022-10-02T00:16:28.992Z,937.40
2022-10-02T00:17:28.947Z,937.45
2022-10-02T00:18:28.961Z,937.40
2022-10-02T00:19:28.976Z,937.41
2022-10-02T00:20:28.988Z,937.41
2022-10-02T00:21:29.004Z,937.42
2022-10-02T00:22:29.015Z,937.45
2022-10-02T00:23:29.029Z,937.45
2022-10-02T00:24:29.042Z,937.45
2022-10-02T00:25:29.054Z,937.44
2022-10-02T00:26:29.070Z,937.45
2022-10-02T00:27:29.083Z,937.43
2022-10-02T00:28:29.200Z,937.46
2022-10-02T00:29:29.110Z,937.44
2022-10-02T00:30:29.142Z,937.46
2022-10-02T00:31:29.186Z,937.48
2022-10-02T00:32:29.150Z,937.46
2022-10-02T00:33:29.162Z,937.52
2022-10-02T00:34:29.176Z,937.48
2022-10-02T00:35:29.190Z,937.51
2022-10-02T00:36:29.202Z,937.48
2022-10-02T00:37:29.216Z,937.51
2022-10-02T00:38:29.229Z,937.54
2022-10-02T00:39:29.244Z,937.50
2022-10-02T00:40:29.256Z,937.51
2022-10-02T00:41:29.271Z,937.52
2022-10-02T00:42:29.285Z,937.48
2022-10-02T00:43:29.297Z,937.51
2022-10-02T00:44:29.311Z,937.51
2022-10-02T00:45:29.364Z,937.52
2022-10-02T00:46:29.357Z,937.52
2022-10-02T00:47:29.354Z,937.53
2022-10-02T00:48:29.366Z,937.51
2022-10-02T00:49:29.383Z,937.52
2022-10-02T00:50:29.393Z,937.52
2022-10-02T00:51:29.405Z,937.46
2022-10-02T00:52:29.419Z,937.50
2022-10-02T00:53:29.430Z,937.46
2022-10-02T00:54:29.451Z,937.49
2022-10-02T00:55:29.459Z,937.45
2022-10-02T00:56:29.471Z,937.43
2022-10-02T00:57:29.485Z,937.42
2022-10-02T00:58:29.498Z,937.42
2022-10-02T00:59:29.515Z,937.42
2022-10-02T01:00:29.524Z,937.43
2022-10-02T01:01:29.544Z,937.39
2022-10-02T01:02:29.663Z,937.42
2022-10-02T01:03:29.568Z,937.38
2022-10-02T01:04:29.580Z,937.35
2022-10-02T01:05:29.594Z,937.37
2022-10-02T01:06:29.607Z,937.36
2022-10-02T01:07:29.619Z,937.35
2022-10-02T01:08:29.632Z,937.35
2022-10-02T01:09:29.643Z,937.34
2022-10-02T01:10:29.660Z,937.34
2022-10-02T01:11:29.673Z,937.28
2022-10-02T01:12:29.685Z,937.29
2022-10-02T01:13:29.699Z,937.30
2022-10-02T01:14:29.713Z,937.30
2022-10-02T01:15:29.731Z,937.24
2022-10-02T01:16:29.818Z,937.23
2022-10-02T01:17:29.752Z,937.24
2022-10-02T01:18:29.785Z,937.22
2022-10-02T01:19:29.779Z,937.23
2022-10-02T01:20:29.792Z,937.20
2022-10-02T01:21:29.808Z,937.17
2022-10-02T01:22:29.819Z,937.15
2022-10-02T01:23:29.835Z,937.08
2022-10-02T01:24:29.849Z,937.06
2022-10-02T01:25:29.860Z,937.05
2022-10-02T01:26:29.873Z,937.10
2022-10-02T01:27:29.886Z,937.09
2022-10-02T01:28:29.962Z,937.11
2022-10-02T01:29:29.915Z,937.09
2022-10-02T01:30:29.929Z,937.09
2022-10-02T01:31:30.018Z,937.10
2022-10-02T01:32:29.953Z,937.11
2022-10-02T01:33:29.967Z,937.11
2022-10-02T01:34:30.052Z,937.12
2022-10-02T01:35:30.002Z,937.10
2022-10-02T01:36:30.006Z,937.12
2022-10-02T01:37:30.021Z,937.10
2022-10-02T01:38:30.035Z,937.09
2022-10-02T01:39:30.047Z,937.05
2022-10-02T01:40:30.060Z,937.05
2022-10-02T01:41:30.073Z,937.07
2022-10-02T01:42:30.090Z,937.07
2022-10-02T01:43:30.101Z,937.05
2022-10-02T01:44:30.112Z,937.03
2022-10-02T01:45:30.171Z,937.03
2022-10-02T01:46:30.139Z,937.02
2022-10-02T01:47:30.153Z,937.05
2022-10-02T01:48:30.167Z,937.01
2022-10-02T01:49:30.179Z,937.02
2022-10-02T01:50:30.215Z,937.02
2022-10-02T01:51:30.207Z,937.02
2022-10-02T01:52:30.220Z,937.04
2022-10-02T01:53:30.236Z,937.01
2022-10-02T01:54:30.248Z,937.03
2022-10-02T01:55:30.263Z,937.05
2022-10-02T01:56:30.276Z,937.09
2022-10-02T01:57:30.287Z,937.11
2022-10-02T01:58:30.301Z,937.08
2022-10-02T01:59:30.345Z,937.08
2022-10-02T02:00:30.350Z,937.09
2022-10-02T02:01:30.421Z,937.05
2022-10-02T02:02:30.420Z,937.04
2022-10-02T02:03:30.370Z,937.03
2022-10-02T02:04:30.380Z,937.03
2022-10-02T02:05:30.398Z,937.02
2022-10-02T02:06:30.428Z,936.99
2022-10-02T02:07:30.421Z,936.97
2022-10-02T02:08:30.434Z,936.97
2022-10-02T02:09:30.450Z,936.97
2022-10-02T02:10:30.462Z,936.93
2022-10-02T02:11:30.475Z,936.96
2022-10-02T02:12:30.492Z,936.91
2022-10-02T02:13:30.502Z,936.94
2022-10-02T02:14:30.514Z,936.88
2022-10-02T02:15:30.531Z,936.89
2022-10-02T02:16:30.627Z,936.90
2022-10-02T02:17:30.555Z,936.95
2022-10-02T02:18:30.567Z,936.94
2022-10-02T02:19:30.584Z,936.95
2022-10-02T02:20:30.594Z,936.97
2022-10-02T02:21:30.608Z,936.96
2022-10-02T02:22:30.659Z,937.00
2022-10-02T02:23:30.635Z,936.97
2022-10-02T02:24:30.648Z,936.99
2022-10-02T02:25:30.660Z,937.02
2022-10-02T02:26:30.674Z,937.02
2022-10-02T02:27:30.688Z,937.07
2022-10-02T02:28:30.723Z,937.04
2022-10-02T02:29:30.716Z,937.04
2022-10-02T02:30:30.728Z,937.06
2022-10-02T02:31:30.812Z,937.03
2022-10-02T02:32:30.753Z,937.00
2022-10-02T02:33:30.767Z,937.00
2022-10-02T02:34:30.779Z,936.96
2022-10-02T02:35:30.794Z,936.97
2022-10-02T02:36:30.807Z,936.94
2022-10-02T02:37:30.822Z,936.91
2022-10-02T02:38:30.870Z,936.92
2022-10-02T02:39:30.847Z,936.95
2022-10-02T02:40:30.861Z,936.93
2022-10-02T02:41:30.874Z,936.95
2022-10-02T02:42:30.887Z,936.93
2022-10-02T02:43:30.903Z,936.94
2022-10-02T02:44:30.913Z,936.96
2022-10-02T02:45:30.995Z,936.96
2022-10-02T02:46:30.941Z,936.96
2022-10-02T02:47:30.953Z,936.93
2022-10-02T02:48:30.966Z,936.95
2022-10-02T02:49:30.980Z,936.98
2022-10-02T02:50:30.994Z,936.99
2022-10-02T02:51:31.007Z,936.96
2022-10-02T02:52:31.023Z,936.97
2022-10-02T02:53:31.035Z,936.98
2022-10-02T02:54:31.066Z,936.94
2022-10-02T02:55:31.061Z,936.93
2022-10-02T02:56:31.073Z,936.91
2022-10-02T02:57:31.087Z,936.94
2022-10-02T02:58:31.099Z,936.93
2022-10-02T02:59:31.113Z,936.95
2022-10-02T03:00:31.128Z,936.97
2022-10-02T03:01:31.223Z,936.97
2022-10-02T03:02:31.285Z,936.97
2022-10-02T03:03:31.167Z,936.93
2022-10-02T03:04:31.182Z,936.92
2022-10-02T03:05:31.193Z,936.94
2022-10-02T03:06:31.208Z,936.90
2022-10-02T03:07:31.219Z,936.90
2022-10-02T03:08:31.232Z,936.86
2022-10-02T03:09:31.247Z,936.89
2022-10-02T03:10:31.278Z,936.86
2022-10-02T03:11:31.275Z,936.87
2022-10-02T03:12:31.286Z,936.88
2022-10-02T03:13:31.299Z,936.83
2022-10-02T03:14:31.312Z,936.84
2022-10-02T03:15:31.408Z,936.83
2022-10-02T03:16:31.339Z,936.84
2022-10-02T03:17:31.351Z,936.80
2022-10-02T03:18:31.366Z,936.79
2022-10-02T03:19:31.380Z,936.76
2022-10-02T03:20:31.391Z,936.72
2022-10-02T03:21:31.404Z,936.70
2022-10-02T03:22:31.417Z,936.73
2022-10-02T03:23:31.432Z,936.73
2022-10-02T03:24:31.444Z,936.69
2022-10-02T03:25:31.459Z,936.69
2022-10-02T03:26:31.491Z,936.63
2022-10-02T03:27:35.014Z,936.64
2022-10-02T03:28:54.280Z,936.66
2022-10-02T03:29:31.513Z,936.62
2022-10-02T03:30:31.527Z,936.64
2022-10-02T03:31:31.610Z,936.65
2022-10-02T03:32:31.554Z,936.61
2022-10-02T03:33:31.565Z,936.62
2022-10-02T03:34:31.577Z,936.60
2022-10-02T03:35:31.594Z,936.59
2022-10-02T03:36:31.604Z,936.60
2022-10-02T03:37:31.617Z,936.58
2022-10-02T03:38:31.633Z,936.55
2022-10-02T03:39:31.643Z,936.54
2022-10-02T03:40:31.656Z,936.54
2022-10-02T03:41:31.675Z,936.51
2022-10-02T03:42:31.706Z,936.56
2022-10-02T03:43:31.697Z,936.59
2022-10-02T03:44:31.714Z,936.57
2022-10-02T03:45:51.449Z,936.57
2022-10-02T03:46:31.822Z,936.58
2022-10-02T03:47:31.749Z,936.55
2022-10-02T03:48:31.766Z,936.59
2022-10-02T03:49:31.776Z,936.55
2022-10-02T03:50:36.183Z,936.53
2022-10-02T03:51:31.805Z,936.53
2022-10-02T03:52:31.816Z,936.52
2022-10-02T03:53:31.829Z,936.54
2022-10-02T03:54:31.844Z,936.55
2022-10-02T03:55:31.857Z,936.57
2022-10-02T03:56:31.869Z,936.57
2022-10-02T03:57:31.882Z,936.56
2022-10-02T03:58:31.913Z,936.57
2022-10-02T03:59:31.912Z,936.56
2022-10-02T04:00:31.922Z,936.52
2022-10-02T04:01:31.978Z,936.52
2022-10-02T04:02:31.949Z,936.53
2022-10-02T04:03:32.053Z,936.54
2022-10-02T04:04:31.977Z,936.54
2022-10-02T04:05:31.991Z,936.48
2022-10-02T04:06:32.002Z,936.46
2022-10-02T04:07:32.019Z,936.46
2022-10-02T04:08:32.028Z,936.45
2022-10-02T04:09:32.040Z,936.39
2022-10-02T04:10:32.054Z,936.36
2022-10-02T04:11:32.071Z,936.35
2022-10-02T04:12:32.080Z,936.33
2022-10-02T04:13:32.095Z,936.34
2022-10-02T04:14:32.126Z,936.33
2022-10-02T04:15:32.120Z,936.32
2022-10-02T04:16:32.176Z,936.32
2022-10-02T04:17:32.145Z,936.32
2022-10-02T04:18:32.163Z,936.27
2022-10-02T04:19:32.175Z,936.31
2022-10-02T04:20:32.188Z,936.30
2022-10-02T04:21:32.200Z,936.27
2022-10-02T04:22:32.212Z,936.26
2022-10-02T04:23:32.228Z,936.24
2022-10-02T04:24:32.239Z,936.22
2022-10-02T04:25:32.253Z,936.20
2022-10-02T04:26:32.269Z,936.18
2022-10-02T04:27:32.281Z,936.18
2022-10-02T04:28:32.294Z,936.15
2022-10-02T04:29:32.305Z,936.13
2022-10-02T04:30:32.335Z,936.11
2022-10-02T04:31:32.407Z,936.10
2022-10-02T04:32:32.343Z,936.09
2022-10-02T04:33:36.373Z,936.06
2022-10-02T04:34:32.373Z,936.04
2022-10-02T04:35:32.387Z,936.00
2022-10-02T04:36:32.398Z,936.04
2022-10-02T04:37:32.413Z,935.99
2022-10-02T04:38:32.425Z,935.97
2022-10-02T04:39:32.440Z,935.96
2022-10-02T04:40:32.451Z,935.95
2022-10-02T04:41:32.463Z,935.86
2022-10-02T04:42:32.476Z,935.89
2022-10-02T04:43:32.490Z,935.89
2022-10-02T04:44:32.506Z,935.85
2022-10-02T04:45:32.585Z,935.80
2022-10-02T04:46:32.626Z,935.81
2022-10-02T04:47:32.544Z,935.78
2022-10-02T04:48:32.555Z,935.77
2022-10-02T04:49:32.569Z,935.75
2022-10-02T04:50:32.584Z,935.77
2022-10-02T04:51:32.595Z,935.78
2022-10-02T04:52:32.609Z,935.75
2022-10-02T04:53:32.624Z,935.70
2022-10-02T04:54:32.636Z,935.72
2022-10-02T04:55:32.649Z,935.75
2022-10-02T04:56:32.661Z,935.74
2022-10-02T04:57:32.674Z,935.71
2022-10-02T04:58:32.689Z,935.73
2022-10-02T04:59:32.702Z,935.71
2022-10-02T05:00:32.772Z,935.69
2022-10-02T05:01:32.726Z,935.63
2022-10-02T05:02:32.759Z,935.64
2022-10-02T05:03:32.755Z,935.59
2022-10-02T05:04:32.767Z,935.63
2022-10-02T05:05:32.782Z,935.63
2022-10-02T05:06:32.980Z,935.60
2022-10-02T05:07:32.807Z,935.59
2022-10-02T05:08:32.819Z,935.59
2022-10-02T05:09:32.831Z,935.55
2022-10-02T05:10:32.848Z,935.55
2022-10-02T05:11:32.858Z,935.54
2022-10-02T05:12:32.872Z,935.53
2022-10-02T05:13:32.904Z,935.51
2022-10-02T05:14:32.899Z,935.53
2022-10-02T05:15:32.913Z,935.52
2022-10-02T05:16:33.025Z,935.53
2022-10-02T05:17:32.938Z,935.52
2022-10-02T05:18:32.969Z,935.49
2022-10-02T05:19:32.964Z,935.50
2022-10-02T05:20:32.977Z,935.44
2022-10-02T05:21:32.992Z,935.49
2022-10-02T05:22:33.003Z,935.43
2022-10-02T05:23:33.016Z,935.43
2022-10-02T05:24:33.030Z,935.44
2022-10-02T05:25:33.042Z,935.42
2022-10-02T05:26:33.119Z,935.44
2022-10-02T05:27:33.070Z,935.42
2022-10-02T05:28:33.175Z,935.40
2022-10-02T05:29:33.095Z,935.43
2022-10-02T05:30:33.110Z,935.42
2022-10-02T05:31:33.140Z,935.37
2022-10-02T05:32:33.135Z,935.34
2022-10-02T05:33:33.169Z,935.33
2022-10-02T05:34:33.179Z,935.36
2022-10-02T05:35:33.174Z,935.33
2022-10-02T05:36:33.614Z,935.32
2022-10-02T05:37:33.200Z,935.30
2022-10-02T05:38:33.213Z,935.29
2022-10-02T05:39:33.227Z,935.29
2022-10-02T05:40:33.240Z,935.27
2022-10-02T05:41:33.264Z,935.25
2022-10-02T05:42:33.265Z,935.28
2022-10-02T05:43:33.279Z,935.20
2022-10-02T05:44:33.293Z,935.24
2022-10-02T05:45:33.308Z,935.21
2022-10-02T05:46:33.390Z,935.18
2022-10-02T05:47:33.334Z,935.17
2022-10-02T05:48:33.343Z,935.22
2022-10-02T05:49:33.357Z,935.18
2022-10-02T05:50:33.449Z,935.21
2022-10-02T05:51:33.384Z,935.19
2022-10-02T05:52:33.397Z,935.22
2022-10-02T05:53:33.409Z,935.20
2022-10-02T05:54:33.422Z,935.23
2022-10-02T05:55:33.436Z,935.25
2022-10-02T05:56:33.595Z,935.23
2022-10-02T05:57:33.463Z,935.22
2022-10-02T05:58:33.475Z,935.20
2022-10-02T05:59:33.487Z,935.21
2022-10-02T06:00:33.501Z,935.23
2022-10-02T06:01:33.686Z,935.21
2022-10-02T06:02:38.807Z,935.17
2022-10-02T06:03:33.546Z,935.22
2022-10-02T06:04:33.642Z,935.19
2022-10-02T06:05:33.589Z,935.23
2022-10-02T06:06:33.929Z,935.20
2022-10-02T06:07:33.604Z,935.20
2022-10-02T06:08:33.618Z,935.24
2022-10-02T06:09:33.624Z,935.24
2022-10-02T06:10:33.666Z,935.31
2022-10-02T06:11:33.655Z,935.26
2022-10-02T06:12:33.657Z,935.24
2022-10-02T06:13:33.669Z,935.25
2022-10-02T06:14:33.685Z,935.24
2022-10-02T06:15:33.698Z,935.24
2022-10-02T06:16:34.123Z,935.26
2022-10-02T06:17:33.723Z,935.20
2022-10-02T06:18:33.735Z,935.27
2022-10-02T06:19:33.750Z,935.26
2022-10-02T06:20:33.762Z,935.26
2022-10-02T06:21:33.775Z,935.21
2022-10-02T06:22:33.806Z,935.26
2022-10-02T06:23:33.801Z,935.24
2022-10-02T06:24:33.814Z,935.24
2022-10-02T06:25:33.828Z,935.27
2022-10-02T06:26:34.457Z,935.24
2022-10-02T06:27:33.856Z,935.21
2022-10-02T06:28:33.867Z,935.23
2022-10-02T06:29:33.878Z,935.21
2022-10-02T06:30:33.893Z,935.25
2022-10-02T06:31:33.955Z,935.25
2022-10-02T06:32:33.916Z,935.24
2022-10-02T06:33:33.931Z,935.27
2022-10-02T06:34:33.945Z,935.30
2022-10-02T06:35:33.957Z,935.28
2022-10-02T06:36:34.324Z,935.26
2022-10-02T06:37:33.985Z,935.30
2022-10-02T06:38:34.015Z,935.29
2022-10-02T06:39:34.011Z,935.27
2022-10-02T06:40:34.021Z,935.28
2022-10-02T06:41:34.034Z,935.30
2022-10-02T06:42:34.054Z,935.28
2022-10-02T06:43:34.061Z,935.27
2022-10-02T06:44:34.075Z,935.30
2022-10-02T06:45:34.156Z,935.29
2022-10-02T06:46:34.376Z,935.33
2022-10-02T06:47:34.114Z,935.30
2022-10-02T06:48:34.125Z,935.31
2022-10-02T06:49:34.138Z,935.41
2022-10-02T06:50:34.152Z,935.40
2022-10-02T06:51:34.165Z,935.41
2022-10-02T06:52:37.924Z,935.43
2022-10-02T06:53:34.190Z,935.45
2022-10-02T06:54:34.220Z,935.45
2022-10-02T06:55:34.222Z,935.44
2022-10-02T06:56:34.743Z,935.45
2022-10-02T06:57:34.242Z,935.42
2022-10-02T06:58:34.254Z,935.40
2022-10-02T06:59:34.273Z,935.43
2022-10-02T07:00:34.293Z,935.45
2022-10-02T07:01:34.295Z,935.43
2022-10-02T07:02:34.354Z,935.45
2022-10-02T07:03:34.320Z,935.44
2022-10-02T07:04:34.331Z,935.46
2022-10-02T07:05:34.344Z,935.48
2022-10-02T07:06:34.735Z,935.50
2022-10-02T07:07:34.372Z,935.53
2022-10-02T07:08:34.384Z,935.56
2022-10-02T07:09:34.401Z,935.56
2022-10-02T07:10:34.428Z,935.58
2022-10-02T07:11:34.427Z,935.61
2022-10-02T07:12:34.440Z,935.57
2022-10-02T07:13:34.450Z,935.61
2022-10-02T07:14:34.462Z,935.59
2022-10-02T07:15:34.475Z,935.63
2022-10-02T07:16:34.995Z,935.61
2022-10-02T07:17:34.500Z,935.61
2022-10-02T07:18:34.515Z,935.59
2022-10-02T07:19:34.528Z,935.63
2022-10-02T07:20:34.540Z,935.64
2022-10-02T07:21:34.553Z,935.64
2022-10-02T07:22:46.703Z,935.64
2022-10-02T07:23:34.585Z,935.63
2022-10-02T07:24:34.597Z,935.63
2022-10-02T07:25:34.706Z,935.66
2022-10-02T07:26:34.966Z,935.64
2022-10-02T07:27:34.630Z,935.67
2022-10-02T07:28:34.714Z,935.71
2022-10-02T07:29:34.657Z,935.68
2022-10-02T07:30:34.669Z,935.68
2022-10-02T07:31:34.754Z,935.70
2022-10-02T07:32:34.697Z,935.68
2022-10-02T07:33:34.708Z,935.67
2022-10-02T07:34:34.722Z,935.70
2022-10-02T07:35:34.734Z,935.70
2022-10-02T07:36:35.037Z,935.67
2022-10-02T07:37:34.758Z,935.70
2022-10-02T07:38:34.772Z,935.68
2022-10-02T07:39:34.787Z,935.67
2022-10-02T07:40:34.798Z,935.68
2022-10-02T07:41:34.814Z,935.69
2022-10-02T07:42:34.842Z,935.68
2022-10-02T07:43:34.837Z,935.68
2022-10-02T07:44:34.849Z,935.69
2022-10-02T07:45:34.930Z,935.69
2022-10-02T07:46:35.102Z,935.74
2022-10-02T07:47:34.888Z,935.71
2022-10-02T07:48:34.901Z,935.67
2022-10-02T07:49:34.915Z,935.70
2022-10-02T07:50:34.928Z,935.68
2022-10-02T07:51:34.941Z,935.72
2022-10-02T07:52:34.953Z,935.72
2022-10-02T07:53:34.965Z,935.72
2022-10-02T07:54:34.978Z,935.73
2022-10-02T07:55:34.993Z,935.72
2022-10-02T07:56:35.209Z,935.76
2022-10-02T07:57:35.018Z,935.77
2022-10-02T07:58:35.047Z,935.78
2022-10-02T07:59:35.046Z,935.83
2022-10-02T08:00:35.055Z,935.82
2022-10-02T08:01:35.071Z,935.85
2022-10-02T08:02:35.139Z,935.91
2022-10-02T08:03:35.117Z,935.87
2022-10-02T08:04:37.341Z,935.90
2022-10-02T08:05:35.121Z,935.90
2022-10-02T08:06:35.415Z,935.88
2022-10-02T08:07:35.147Z,935.88
2022-10-02T08:08:35.159Z,935.93
2022-10-02T08:09:35.172Z,935.90
2022-10-02T08:10:35.185Z,935.89
2022-10-02T08:11:35.198Z,935.89
2022-10-02T08:12:35.211Z,935.92
2022-10-02T08:13:35.223Z,935.94
2022-10-02T08:14:35.252Z,935.92
2022-10-02T08:15:35.248Z,935.92
2022-10-02T08:16:35.617Z,936.01
2022-10-02T08:17:35.274Z,935.91
2022-10-02T08:18:35.931Z,935.96
2022-10-02T08:19:35.299Z,935.97
2022-10-02T08:20:35.314Z,935.98
2022-10-02T08:21:35.325Z,935.95
2022-10-02T08:22:35.337Z,935.95
2022-10-02T08:23:35.354Z,935.99
2022-10-02T08:24:35.363Z,935.97
2022-10-02T08:25:35.376Z,935.99
2022-10-02T08:26:36.168Z,935.99
2022-10-02T08:27:35.402Z,936.03
2022-10-02T08:28:35.418Z,936.01
2022-10-02T08:29:35.429Z,936.02
2022-10-02T08:30:35.458Z,936.06
2022-10-02T08:31:35.577Z,936.09
2022-10-02T08:32:35.467Z,936.09
2022-10-02T08:33:35.481Z,936.09
2022-10-02T08:34:35.496Z,936.09
2022-10-02T08:35:35.505Z,936.05
2022-10-02T08:36:35.854Z,936.08
2022-10-02T08:37:35.530Z,936.10
2022-10-02T08:38:35.543Z,936.06
2022-10-02T08:39:35.556Z,936.04
2022-10-02T08:40:35.569Z,936.04
2022-10-02T08:41:35.581Z,936.08
2022-10-02T08:42:35.597Z,936.06
2022-10-02T08:43:35.608Z,936.05
2022-10-02T08:44:36.604Z,936.06
2022-10-02T08:45:35.643Z,936.07
2022-10-02T08:46:35.951Z,936.08
2022-10-02T08:47:35.659Z,936.14
2022-10-02T08:48:35.672Z,936.09
2022-10-02T08:49:35.684Z,936.12
2022-10-02T08:50:35.699Z,936.10
2022-10-02T08:51:35.712Z,936.11
2022-10-02T08:52:35.722Z,936.16
2022-10-02T08:53:35.735Z,936.13
2022-10-02T08:54:35.749Z,936.13
2022-10-02T08:55:35.763Z,936.11
2022-10-02T08:56:36.077Z,936.09
2022-10-02T08:57:35.787Z,936.12
2022-10-02T08:58:35.802Z,936.10
2022-10-02T08:59:35.813Z,936.11
2022-10-02T09:00:35.924Z,936.13
2022-10-02T09:01:35.838Z,936.13
2022-10-02T09:02:35.919Z,936.15
2022-10-02T09:03:35.864Z,936.11
2022-10-02T09:04:35.876Z,936.13
2022-10-02T09:05:35.889Z,936.13
2022-10-02T09:06:36.144Z,936.16
2022-10-02T09:07:35.918Z,936.16
2022-10-02T09:08:35.926Z,936.16
2022-10-02T09:09:35.940Z,936.16
2022-10-02T09:10:35.954Z,936.17
2022-10-02T09:11:35.967Z,936.20
2022-10-02T09:12:35.979Z,936.20
2022-10-02T09:13:35.991Z,936.23
2022-10-02T09:14:36.004Z,936.27
2022-10-02T09:15:36.021Z,936.28
2022-10-02T09:16:36.261Z,936.28
2022-10-02T09:17:36.043Z,936.34
2022-10-02T09:18:36.073Z,936.29
2022-10-02T09:19:36.068Z,936.31
2022-10-02T09:20:36.082Z,936.32
2022-10-02T09:21:36.093Z,936.35
2022-10-02T09:22:36.106Z,936.33
2022-10-02T09:23:36.121Z,936.33
2022-10-02T09:24:36.132Z,936.32
2022-10-02T09:25:36.146Z,936.32
2022-10-02T09:26:36.446Z,936.36
2022-10-02T09:27:36.170Z,936.35
2022-10-02T09:28:36.249Z,936.38
2022-10-02T09:29:36.196Z,936.36
2022-10-02T09:30:36.208Z,936.33
2022-10-02T09:31:36.258Z,936.37
2022-10-02T09:32:36.234Z,936.36
2022-10-02T09:33:36.246Z,936.35
2022-10-02T09:34:36.278Z,936.35
2022-10-02T09:35:36.271Z,936.35
2022-10-02T09:36:36.595Z,936.35
2022-10-02T09:37:36.299Z,936.38
2022-10-02T09:38:39.158Z,936.36
2022-10-02T09:39:36.322Z,936.38
2022-10-02T09:40:36.335Z,936.38
2022-10-02T09:41:36.349Z,936.40
2022-10-02T09:42:36.361Z,936.45
2022-10-02T09:43:36.374Z,936.45
2022-10-02T09:44:36.386Z,936.51
2022-10-02T09:45:36.571Z,936.53
2022-10-02T09:46:36.722Z,936.54
2022-10-02T09:47:36.426Z,936.60
2022-10-02T09:48:36.438Z,936.61
2022-10-02T09:49:36.449Z,936.61
2022-10-02T09:50:36.484Z,936.59
2022-10-02T09:51:36.478Z,936.62
2022-10-02T09:52:40.642Z,936.65
2022-10-02T09:53:36.503Z,936.68
2022-10-02T09:54:36.515Z,936.70
2022-10-02T09:55:36.529Z,936.74
2022-10-02T09:56:36.830Z,936.71
2022-10-02T09:57:36.552Z,936.75
2022-10-02T09:58:36.568Z,936.74
2022-10-02T09:59:36.579Z,936.77
2022-10-02T10:00:36.591Z,936.71
2022-10-02T10:01:36.604Z,936.78
2022-10-02T10:02:36.679Z,936.79
2022-10-02T10:03:36.636Z,936.80
2022-10-02T10:04:54.035Z,936.83
2022-10-02T10:05:36.656Z,936.77
2022-10-02T10:06:37.027Z,936.79
2022-10-02T10:07:36.684Z,936.80
2022-10-02T10:08:36.694Z,936.82
2022-10-02T10:09:36.708Z,936.81
2022-10-02T10:10:36.718Z,936.82
2022-10-02T10:11:37.005Z,936.88
2022-10-02T10:12:36.745Z,936.86
2022-10-02T10:13:36.757Z,936.89
2022-10-02T10:14:36.771Z,936.93
2022-10-02T10:15:36.784Z,936.93
2022-10-02T10:16:36.822Z,936.99
2022-10-02T10:17:36.808Z,936.98
2022-10-02T10:18:36.822Z,936.97
2022-10-02T10:19:36.834Z,936.99
2022-10-02T10:20:36.848Z,936.99
2022-10-02T10:21:37.084Z,937.02
2022-10-02T10:22:36.894Z,937.06
2022-10-02T10:23:36.887Z,937.06
2022-10-02T10:24:36.896Z,937.08
2022-10-02T10:25:36.913Z,937.11
2022-10-02T10:26:36.923Z,937.13
2022-10-02T10:27:36.935Z,937.18
2022-10-02T10:28:36.948Z,937.19
2022-10-02T10:29:36.963Z,937.21
2022-10-02T10:30:36.975Z,937.17
2022-10-02T10:31:37.322Z,937.21
2022-10-02T10:32:36.998Z,937.19
2022-10-02T10:33:37.012Z,937.21
2022-10-02T10:34:37.025Z,937.23
2022-10-02T10:35:37.038Z,937.23
2022-10-02T10:36:37.048Z,937.24
2022-10-02T10:37:37.064Z,937.27
2022-10-02T10:38:37.092Z,937.26
2022-10-02T10:39:37.089Z,937.30
2022-10-02T10:40:37.103Z,937.34
2022-10-02T10:41:37.365Z,937.35
2022-10-02T10:42:50.155Z,937.39
2022-10-02T10:43:37.138Z,937.41
2022-10-02T10:44:37.155Z,937.41
2022-10-02T10:45:37.217Z,937.40
2022-10-02T10:46:37.182Z,937.40
2022-10-02T10:47:37.191Z,937.40
2022-10-02T10:48:37.203Z,937.37
2022-10-02T10:49:37.215Z,937.38
2022-10-02T10:50:37.226Z,937.41
2022-10-02T10:51:37.689Z,937.38
2022-10-02T10:52:37.252Z,937.41
2022-10-02T10:53:37.265Z,937.41
2022-10-02T10:54:37.297Z,937.44
2022-10-02T10:55:37.297Z,937.46
2022-10-02T10:56:37.313Z,937.48
2022-10-02T10:57:37.318Z,937.46
2022-10-02T10:58:37.330Z,937.46
2022-10-02T10:59:37.342Z,937.47
2022-10-02T11:00:37.358Z,937.46
2022-10-02T11:01:37.748Z,937.49
2022-10-02T11:02:37.407Z,937.52
2022-10-02T11:03:37.393Z,937.52
2022-10-02T11:04:37.405Z,937.50
2022-10-02T11:05:37.419Z,937.51
2022-10-02T11:06:37.430Z,937.47
2022-10-02T11:07:37.443Z,937.52
2022-10-02T11:08:37.455Z,937.54
2022-10-02T11:09:37.468Z,937.48
2022-10-02T11:10:37.498Z,937.52
2022-10-02T11:11:37.728Z,937.52
2022-10-02T11:12:37.508Z,937.50
2022-10-02T11:13:37.518Z,937.51
2022-10-02T11:14:37.533Z,937.51
2022-10-02T11:15:37.545Z,937.53
2022-10-02T11:16:37.634Z,937.50
2022-10-02T11:17:37.570Z,937.51
2022-10-02T11:18:37.583Z,937.54
2022-10-02T11:19:37.597Z,937.55
2022-10-02T11:20:37.609Z,937.57
2022-10-02T11:21:38.086Z,937.49
2022-10-02T11:22:37.634Z,937.56
2022-10-02T11:23:37.647Z,937.54
2022-10-02T11:24:37.659Z,937.56
2022-10-02T11:25:37.673Z,937.59
2022-10-02T11:26:37.705Z,937.59
2022-10-02T11:27:37.699Z,937.53
2022-10-02T11:28:37.710Z,937.53
2022-10-02T11:29:37.723Z,937.51
2022-10-02T11:30:41.578Z,937.53
2022-10-02T11:31:38.081Z,937.55
2022-10-02T11:32:37.763Z,937.53
2022-10-02T11:33:37.775Z,937.52
2022-10-02T11:34:37.798Z,937.51
2022-10-02T11:35:37.801Z,937.55
2022-10-02T11:36:37.811Z,937.55
2022-10-02T11:37:37.828Z,937.58
2022-10-02T11:38:37.840Z,937.54
2022-10-02T11:39:37.850Z,937.57
2022-10-02T11:40:37.863Z,937.58
2022-10-02T11:41:38.270Z,937.55
2022-10-02T11:42:37.905Z,937.54
2022-10-02T11:43:43.161Z,937.55
2022-10-02T11:44:37.913Z,937.59
2022-10-02T11:45:37.975Z,937.56
2022-10-02T11:46:37.939Z,937.60
2022-10-02T11:47:37.951Z,937.64
2022-10-02T11:48:37.964Z,937.57
2022-10-02T11:49:38.004Z,937.60
2022-10-02T11:50:37.993Z,937.61
2022-10-02T11:51:38.455Z,937.63
2022-10-02T11:52:38.016Z,937.63
2022-10-02T11:53:38.029Z,937.62
2022-10-02T11:54:38.040Z,937.60
2022-10-02T11:55:38.054Z,937.67
2022-10-02T11:56:38.066Z,937.57
2022-10-02T11:57:38.081Z,937.57
2022-10-02T11:58:38.109Z,937.57
2022-10-02T11:59:38.105Z,937.59
2022-10-02T12:00:38.117Z,937.59
2022-10-02T12:01:38.684Z,937.59
2022-10-02T12:02:38.260Z,937.61
2022-10-02T12:03:38.156Z,937.59
2022-10-02T12:04:38.171Z,937.56
2022-10-02T12:05:38.180Z,937.58
2022-10-02T12:06:38.194Z,937.59
2022-10-02T12:07:38.210Z,937.60
2022-10-02T12:08:38.217Z,937.60
2022-10-02T12:09:38.231Z,937.64
2022-10-02T12:10:38.247Z,937.65
2022-10-02T12:11:38.641Z,937.61
2022-10-02T12:12:38.269Z,937.64
2022-10-02T12:13:38.282Z,937.61
2022-10-02T12:14:38.311Z,937.63
2022-10-02T12:15:38.309Z,937.63
2022-10-02T12:16:38.381Z,937.58
2022-10-02T12:17:38.332Z,937.58
2022-10-02T12:18:38.346Z,937.55
2022-10-02T12:19:38.360Z,937.55
2022-10-02T12:20:38.370Z,937.57
2022-10-02T12:21:38.824Z,937.53
2022-10-02T12:22:38.396Z,937.60
2022-10-02T12:23:38.411Z,937.56
2022-10-02T12:24:38.424Z,937.53
2022-10-02T12:25:38.436Z,937.52
2022-10-02T12:26:38.448Z,937.54
2022-10-02T12:27:38.461Z,937.51
2022-10-02T12:28:38.473Z,937.54